Time;durP1;ratioP1;P1;durP2;ratioP2;P2;SDS_P1;SDS_P2;PMS_P1;PMS_P2;Temp;Humidity;BMP_temperature;BMP_pressure;BME280_temperature;BME280_humidity;BME280_pressure;Samples;Min_cycle;Max_cycle;Signal;HPM_P1;HPM_P2
2021/03/25 00:01:17;;;;;;;13.52;6.18;;;22.10;40.70;;;;;;5058429;28;20067;-62
2021/03/25 00:03:47;;;;;;;10.32;6.28;;;22.10;40.70;;;;;;5057726;28;20029;-60
2021/03/25 00:06:13;;;;;;;8.73;6.65;;;22.10;40.70;;;;;;5058222;28;20082;-60
2021/03/25 00:08:38;;;;;;;9.15;5.93;;;22.00;40.60;;;;;;5057920;28;20444;-60
2021/03/25 00:11:04;;;;;;;11.23;5.68;;;22.00;40.60;;;;;;5057213;28;20029;-62
2021/03/25 00:13:30;;;;;;;9.18;6.57;;;22.00;40.60;;;;;;5057432;28;20037;-63
2021/03/25 00:15:55;;;;;;;11.73;6.75;;;22.00;40.60;;;;;;5057274;28;20355;-66
2021/03/25 00:18:21;;;;;;;9.95;6.45;;;21.90;40.60;;;;;;5057795;28;20036;-63
2021/03/25 00:20:47;;;;;;;10.25;6.35;;;21.90;40.60;;;;;;5057463;28;20036;-63
2021/03/25 00:23:14;;;;;;;11.32;6.35;;;22.00;40.60;;;;;;5057356;28;20063;-63
2021/03/25 00:25:40;;;;;;;11.68;7.03;;;21.90;40.60;;;;;;5057155;28;20028;-61
2021/03/25 00:28:07;;;;;;;10.15;6.38;;;21.90;40.60;;;;;;5057670;28;20057;-62
2021/03/25 00:30:33;;;;;;;9.32;6.40;;;21.90;40.50;;;;;;5057348;28;20203;-60
2021/03/25 00:33:00;;;;;;;8.60;6.10;;;21.80;40.50;;;;;;5057458;28;20035;-64
2021/03/25 00:35:27;;;;;;;13.30;6.82;;;21.80;40.50;;;;;;5056471;28;20324;-61
2021/03/25 00:37:53;;;;;;;7.95;6.40;;;21.80;40.50;;;;;;5057395;28;20025;-63
2021/03/25 00:40:19;;;;;;;9.85;6.78;;;21.80;40.50;;;;;;5057154;28;20028;-61
2021/03/25 00:42:45;;;;;;;7.75;6.55;;;21.80;40.50;;;;;;5056108;28;20363;-63
2021/03/25 00:45:20;;;;;;;10.20;6.25;;;21.80;40.50;;;;;;5054484;28;20036;-62
2021/03/25 00:47:46;;;;;;;7.65;6.78;;;21.80;40.50;;;;;;5057426;28;20020;-62
2021/03/25 00:50:28;;;;;;;8.95;6.70;;;21.70;40.50;;;;;;5057359;28;20032;-61
2021/03/25 00:52:54;;;;;;;9.18;6.63;;;21.70;40.50;;;;;;5056080;28;20119;-63
2021/03/25 00:55:21;;;;;;;9.68;7.10;;;21.70;40.50;;;;;;5056294;28;20130;-60
2021/03/25 00:57:47;;;;;;;9.77;6.65;;;21.70;40.50;;;;;;5056266;28;20443;-62
2021/03/25 01:00:20;;;;;;;10.20;6.10;;;21.60;40.40;;;;;;5056472;28;20094;-61
2021/03/25 01:02:46;;;;;;;;;;;21.70;40.50;;;;;;5056728;28;20451;-62
2021/03/25 01:05:12;;;;;;;8.90;6.32;;;21.60;40.30;;;;;;5056672;28;19912;-62
2021/03/25 01:07:38;;;;;;;9.65;6.40;;;21.60;40.40;;;;;;5056706;28;20025;-61
2021/03/25 01:10:13;;;;;;;9.55;6.68;;;21.50;40.30;;;;;;5056857;28;20398;-62
2021/03/25 01:12:39;;;;;;;7.95;5.88;;;21.50;40.40;;;;;;5056587;28;20029;-61
2021/03/25 01:15:06;;;;;;;7.38;6.03;;;21.50;40.40;;;;;;5056415;28;20036;-62
2021/03/25 01:17:33;;;;;;;8.82;7.10;;;21.50;40.40;;;;;;5056610;28;20033;-65
2021/03/25 01:19:58;;;;;;;10.30;6.63;;;21.50;40.50;;;;;;5056476;28;20355;-62
2021/03/25 01:22:24;;;;;;;8.95;6.60;;;21.40;40.40;;;;;;5055436;28;20053;-62
2021/03/25 01:24:49;;;;;;;7.70;6.38;;;21.40;40.40;;;;;;5055217;28;20030;-62
2021/03/25 01:27:15;;;;;;;10.45;7.07;;;21.50;40.50;;;;;;5056307;28;20036;-62
2021/03/25 01:29:40;;;;;;;8.40;6.10;;;21.40;40.40;;;;;;5055733;28;20068;-61
2021/03/25 01:32:06;;;;;;;9.98;7.10;;;21.40;40.40;;;;;;5056511;28;20029;-61
2021/03/25 01:34:32;;;;;;;9.32;7.00;;;21.40;40.40;;;;;;5056141;28;20020;-62
2021/03/25 01:36:57;;;;;;;11.63;6.75;;;21.40;40.40;;;;;;5056009;28;20458;-63
2021/03/25 01:39:23;;;;;;;9.60;7.13;;;21.40;40.50;;;;;;5055820;28;20102;-63
2021/03/25 01:41:48;;;;;;;9.05;6.82;;;21.30;40.40;;;;;;5055567;28;20025;-60
2021/03/25 01:44:34;;;;;;;10.10;7.13;;;21.30;40.40;;;;;;5055910;28;20081;-61
2021/03/25 01:47:00;;;;;;;8.50;6.63;;;21.30;40.40;;;;;;5055877;28;20032;-60
2021/03/25 01:49:25;;;;;;;9.40;7.00;;;21.30;40.40;;;;;;5055834;28;20037;-60
2021/03/25 01:52:05;;;;;;;10.60;6.60;;;21.30;40.40;;;;;;5055599;28;20025;-62
2021/03/25 01:54:57;;;;;;;10.07;7.32;;;21.20;40.40;;;;;;5055483;28;20390;-60
2021/03/25 01:57:46;;;;;;;8.55;6.80;;;21.30;40.50;;;;;;5024348;28;20106;-61
2021/03/25 02:00:39;;;;;;;10.23;7.20;;;21.20;40.40;;;;;;5055336;28;20028;-62
2021/03/25 02:03:16;;;;;;;11.05;7.40;;;21.20;40.40;;;;;;5055574;28;20037;-62
2021/03/25 02:05:50;;;;;;;11.27;6.53;;;21.20;40.40;;;;;;5054315;28;20107;-61
2021/03/25 02:09:01;;;;;;;12.30;7.78;;;21.20;40.50;;;;;;5055084;28;20039;-61
2021/03/25 02:11:41;;;;;;;10.00;6.93;;;21.20;40.50;;;;;;5055366;28;20025;-63
2021/03/25 02:14:28;;;;;;;10.82;6.82;;;21.10;40.40;;;;;;5055395;28;20440;-62
2021/03/25 02:17:07;;;;;;;10.18;7.47;;;21.10;40.50;;;;;;5055555;28;20096;-62
2021/03/25 02:20:10;;;;;;;9.77;7.30;;;21.10;40.50;;;;;;5055724;28;20115;-63
2021/03/25 02:22:54;;;;;;;10.15;7.20;;;21.10;40.50;;;;;;5055171;28;20021;-61
2021/03/25 02:25:28;;;;;;;10.57;7.10;;;21.10;40.50;;;;;;5055231;28;20104;-61
2021/03/25 02:28:01;;;;;;;9.30;7.30;;;21.00;40.50;;;;;;5055215;28;20036;-62
2021/03/25 02:30:50;;;;;;;9.65;7.30;;;21.00;40.50;;;;;;5055175;28;20138;-62
2021/03/25 02:33:20;;;;;;;7.72;6.28;;;21.00;40.50;;;;;;5055315;28;20017;-61
2021/03/25 02:35:52;;;;;;;11.13;7.00;;;21.00;40.50;;;;;;5054814;28;20028;-61
2021/03/25 02:38:33;;;;;;;9.05;7.10;;;21.00;40.50;;;;;;5053965;28;20021;-62
2021/03/25 02:41:07;;;;;;;11.77;6.63;;;21.00;40.50;;;;;;5054481;28;20104;-62
2021/03/25 02:43:48;;;;;;;8.32;6.60;;;21.00;40.50;;;;;;5054960;28;20020;-62
2021/03/25 02:46:28;;;;;;;10.63;7.45;;;21.00;40.60;;;;;;5054507;28;20067;-63
2021/03/25 02:48:58;;;;;;;9.98;7.45;;;20.90;40.50;;;;;;5055159;28;20094;-62
2021/03/25 02:51:37;;;;;;;8.10;6.65;;;20.90;40.50;;;;;;5054528;28;20367;-61
2021/03/25 02:54:03;;;;;;;8.52;6.38;;;20.90;40.60;;;;;;5054733;28;20035;-63
2021/03/25 02:56:33;;;;;;;9.02;6.63;;;20.90;40.60;;;;;;5054430;28;20137;-61
2021/03/25 02:59:08;;;;;;;8.70;6.78;;;20.90;40.60;;;;;;5053498;28;20025;-61
2021/03/25 03:01:38;;;;;;;7.97;7.13;;;20.90;40.60;;;;;;5053619;28;20119;-62
2021/03/25 03:04:08;;;;;;;9.05;7.53;;;20.90;40.60;;;;;;5054592;28;20378;-61
2021/03/25 03:06:38;;;;;;;9.73;6.85;;;20.90;40.60;;;;;;5054592;28;20025;-62
2021/03/25 03:09:08;;;;;;;8.93;6.88;;;20.90;40.60;;;;;;5057890;28;20071;-62
2021/03/25 03:11:39;;;;;;;10.32;7.03;;;20.80;40.60;;;;;;5058739;28;20096;-60
2021/03/25 03:14:09;;;;;;;9.23;7.25;;;20.80;40.60;;;;;;5058006;28;20123;-62
2021/03/25 03:16:43;;;;;;;8.10;6.82;;;20.80;40.60;;;;;;5058075;28;20021;-62
2021/03/25 03:19:15;;;;;;;11.00;7.38;;;20.80;40.60;;;;;;5057700;28;20036;-62
2021/03/25 03:21:45;;;;;;;10.75;8.00;;;20.80;40.70;;;;;;5057955;28;20033;-61
2021/03/25 03:24:11;;;;;;;8.90;6.80;;;20.80;40.70;;;;;;5058592;28;20017;-61
2021/03/25 03:26:53;;;;;;;9.55;7.18;;;20.80;40.70;;;;;;5058444;28;20054;-64
2021/03/25 03:29:22;;;;;;;10.05;7.63;;;20.80;40.70;;;;;;5058450;28;20037;-61
2021/03/25 03:31:55;;;;;;;10.73;7.18;;;20.70;40.70;;;;;;5057309;28;20087;-60
2021/03/25 03:34:29;;;;;;;10.45;7.43;;;20.70;40.70;;;;;;5057811;28;20111;-60
2021/03/25 03:37:00;;;;;;;9.27;7.07;;;20.70;40.70;;;;;;5058204;28;20043;-62
2021/03/25 03:39:27;;;;;;;9.70;7.38;;;20.70;40.70;;;;;;5057417;28;20024;-61
2021/03/25 03:41:55;;;;;;;9.30;7.47;;;20.70;40.70;;;;;;5058673;28;20032;-62
2021/03/25 03:44:27;;;;;;;9.07;6.50;;;20.70;40.70;;;;;;5057080;28;20351;-62
2021/03/25 03:46:54;;;;;;;9.57;7.22;;;20.70;40.70;;;;;;5058288;28;20043;-60
2021/03/25 03:49:44;;;;;;;11.68;7.22;;;20.70;40.70;;;;;;5057658;28;20041;-63
2021/03/25 03:52:15;;;;;;;9.55;7.70;;;20.70;40.80;;;;;;5057986;28;20039;-64
2021/03/25 03:54:41;;;;;;;10.02;7.32;;;20.70;40.80;;;;;;5057678;28;20032;-61
2021/03/25 03:57:28;;;;;;;11.00;8.13;;;20.60;40.80;;;;;;5057942;28;20052;-60
2021/03/25 04:00:21;;;;;;;11.68;7.25;;;20.70;40.80;;;;;;5057920;28;20036;-60
2021/03/25 04:03:22;;;;;;;12.13;7.88;;;20.60;40.80;;;;;;5056621;28;20032;-62
2021/03/25 04:05:56;;;;;;;10.93;7.97;;;20.60;40.80;;;;;;4996300;28;20108;-61
2021/03/25 04:08:40;;;;;;;10.23;8.43;;;20.60;40.90;;;;;;5047481;28;20120;-61
2021/03/25 04:11:24;;;;;;;12.02;8.05;;;20.60;40.90;;;;;;5057676;28;20025;-61
2021/03/25 04:13:54;;;;;;;10.68;7.93;;;20.60;40.90;;;;;;5057881;28;20033;-60
2021/03/25 04:16:25;;;;;;;10.65;8.23;;;20.50;40.90;;;;;;5057538;28;20025;-62
2021/03/25 04:19:08;;;;;;;10.07;8.75;;;20.50;40.90;;;;;;5057447;28;20029;-61
2021/03/25 04:22:03;;;;;;;12.90;8.38;;;20.50;40.90;;;;;;5057481;28;20037;-62
2021/03/25 04:24:34;;;;;;;12.13;8.65;;;20.50;40.90;;;;;;5057325;28;20040;-60
2021/03/25 04:27:22;;;;;;;12.45;8.35;;;20.50;40.90;;;;;;5057292;28;20064;-61
2021/03/25 04:30:00;;;;;;;10.35;8.40;;;20.50;41.00;;;;;;5057134;28;20479;-62
2021/03/25 04:32:26;;;;;;;12.15;7.72;;;20.50;41.00;;;;;;5057477;28;20127;-61
2021/03/25 04:34:52;;;;;;;10.98;8.13;;;20.50;41.00;;;;;;5057072;28;20021;-61
2021/03/25 04:37:19;;;;;;;10.38;9.15;;;20.50;41.00;;;;;;5055901;28;20082;-62
2021/03/25 04:39:47;;;;;;;11.00;8.43;;;20.50;41.00;;;;;;5057298;28;20510;-61
2021/03/25 04:42:13;;;;;;;13.35;9.23;;;20.50;41.00;;;;;;5057016;28;20029;-61
2021/03/25 04:44:51;;;;;;;14.68;7.82;;;20.50;41.00;;;;;;5057016;28;20025;-61
2021/03/25 04:47:27;;;;;;;10.15;8.77;;;20.50;41.80;;;;;;5056600;28;20013;-60
2021/03/25 04:49:56;;;;;;;11.90;8.93;;;20.50;41.10;;;;;;5056631;28;20475;-61
2021/03/25 04:52:25;;;;;;;9.23;8.18;;;20.40;41.10;;;;;;5056885;28;20025;-62
2021/03/25 04:54:52;;;;;;;13.18;9.25;;;20.40;41.00;;;;;;5056891;28;20067;-60
2021/03/25 04:57:32;;;;;;;10.98;8.93;;;20.40;41.10;;;;;;5056953;28;20062;-61
2021/03/25 05:00:06;;;;;;;12.90;9.15;;;20.40;41.10;;;;;;5056665;28;20447;-62
2021/03/25 05:02:34;;;;;;;13.85;8.98;;;20.50;41.10;;;;;;5056677;28;20428;-60
2021/03/25 05:05:01;;;;;;;12.52;9.13;;;20.40;41.10;;;;;;5056399;28;20104;-61
2021/03/25 05:07:30;;;;;;;12.10;9.23;;;20.40;41.10;;;;;;5056674;28;20114;-60
2021/03/25 05:09:57;;;;;;;10.98;9.05;;;20.40;41.20;;;;;;5056123;28;20032;-60
2021/03/25 05:12:24;;;;;;;10.45;9.07;;;20.40;41.20;;;;;;5056599;28;20032;-60
2021/03/25 05:14:54;;;;;;;12.80;9.40;;;20.40;41.20;;;;;;5056677;28;20106;-60
2021/03/25 05:17:22;;;;;;;11.05;8.88;;;20.40;41.20;;;;;;5056341;28;20025;-61
2021/03/25 05:20:11;;;;;;;12.98;9.57;;;20.30;41.10;;;;;;5056593;28;20037;-61
2021/03/25 05:23:06;;;;;;;12.10;9.07;;;20.40;41.20;;;;;;5056291;28;20021;-60
2021/03/25 05:25:54;;;;;;;11.23;9.45;;;20.30;41.20;;;;;;5055904;28;20428;-61
2021/03/25 05:28:29;;;;;;;11.43;8.48;;;20.40;41.20;;;;;;5055912;28;20104;-61
2021/03/25 05:30:56;;;;;;;13.85;10.50;;;20.30;41.20;;;;;;5055938;28;20128;-63
2021/03/25 05:33:28;;;;;;;15.07;9.68;;;20.30;41.20;;;;;;5056303;28;20465;-61
2021/03/25 05:36:01;;;;;;;12.77;9.37;;;20.30;41.30;;;;;;5056260;28;20025;-61
2021/03/25 05:38:28;;;;;;;11.93;9.75;;;20.30;41.30;;;;;;5056083;28;20033;-63
2021/03/25 05:41:11;;;;;;;11.80;9.52;;;20.30;41.30;;;;;;5056125;28;20139;-61
2021/03/25 05:44:07;;;;;;;12.07;9.50;;;20.30;41.30;;;;;;5055399;28;20033;-60
2021/03/25 05:46:57;;;;;;;12.00;9.35;;;20.30;41.30;;;;;;5055738;28;20101;-64
2021/03/25 05:49:31;;;;;;;12.80;9.77;;;20.30;41.40;;;;;;5055865;28;20037;-61
2021/03/25 05:52:24;;;;;;;10.93;9.23;;;20.30;41.40;;;;;;5055655;28;20029;-60
2021/03/25 05:54:49;;;;;;;15.30;10.60;;;20.30;41.40;;;;;;5054786;28;20029;-62
2021/03/25 05:57:42;;;;;;;13.10;9.23;;;20.30;41.50;;;;;;5055251;28;20041;-61
2021/03/25 06:00:13;;;;;;;15.02;9.98;;;20.30;41.40;;;;;;5054604;28;20021;-60
2021/03/25 06:03:00;;;;;;;20.75;11.02;;;20.30;41.40;;;;;;5055467;28;20094;-62
2021/03/25 06:05:25;;;;;;;13.35;9.07;;;20.30;41.50;;;;;;5055433;28;20035;-60
2021/03/25 06:07:54;;;;;;;20.48;10.77;;;20.30;41.50;;;;;;5054611;28;20108;-61
2021/03/25 06:10:34;;;;;;;14.65;11.13;;;20.30;41.50;;;;;;5054246;28;20120;-63
2021/03/25 06:13:21;;;;;;;27.17;12.45;;;20.30;41.40;;;;;;5055578;28;20075;-63
2021/03/25 06:16:09;;;;;;;23.25;11.98;;;20.30;41.50;;;;;;5055198;28;20021;-63
2021/03/25 06:19:06;;;;;;;27.23;12.40;;;20.30;41.70;;;;;;5055697;28;20029;-63
2021/03/25 06:21:59;;;;;;;20.23;12.60;;;20.30;41.80;;;;;;5054371;28;20036;-62
2021/03/25 06:24:42;;;;;;;23.27;12.88;;;20.30;42.20;;;;;;5055028;28;20097;-62
2021/03/25 06:27:32;;;;;;;21.48;14.32;;;20.30;42.20;;;;;;5055869;28;20033;-63
2021/03/25 06:30:04;;;;;;;24.45;15.15;;;20.20;42.20;;;;;;5055057;28;20462;-62
2021/03/25 06:32:52;;;;;;;26.08;15.07;;;20.20;42.10;;;;;;5054762;28;20022;-64
2021/03/25 06:35:29;;;;;;;23.73;14.85;;;20.20;42.10;;;;;;5044211;28;20049;-64
2021/03/25 06:38:26;;;;;;;26.63;14.55;;;20.20;42.20;;;;;;5054969;28;20029;-63
2021/03/25 06:41:02;;;;;;;29.30;16.13;;;20.20;42.20;;;;;;5042414;28;20084;-62
2021/03/25 06:43:39;;;;;;;25.17;16.52;;;20.10;42.10;;;;;;5053703;28;20462;-63
2021/03/25 06:46:19;;;;;;;31.33;16.60;;;20.20;42.10;;;;;;5054636;28;20421;-63
2021/03/25 06:48:52;;;;;;;25.48;14.60;;;20.20;42.50;;;;;;5054433;28;20045;-60
2021/03/25 06:51:30;;;;;;;20.13;12.82;;;20.20;42.50;;;;;;5054098;28;20436;-60
